Brussels, WI (54204)

5:28 PM CST on February 23, 2017 (GMT -0600)
Beauty View Road; Town of Union | | Change Station
Active Advisory: Winter Weather Advisory

Elev 574 ft 44.69 °N, 87.72 °W | Updated 14 minutes ago

Overcast
Overcast
37.8 °F
Feels Like 38 °F
N
2.7
Wind Variable Wind from ENE

Today
High -- | Low -- °F
--% Chance of Precip.
Yesterday
High -- | Low -- °F
Precip. -- in
Pressure 29.98 in
Visibility 10.0 miles
Clouds Few 10000 ft
Windchill 38 °F
Dew Point 31 °F
Humidity 76%
Rainfall 0.00 in
Snow Depth Not available.
6:37 AM 5:30 PM
Waning Crescent, 8% visible
METAR KSUE 232256Z AUTO 07006KT 10SM FEW100 02/M03 A2990 RMK AO2 PRESRR SLP150 T00221033 FZRANO
Pressure 29.98 in
Visibility 10.0 miles
Clouds Few 10000 ft
Windchill 38 °F
Dew Point 31 °F
Humidity 76%
Rainfall 0.00 in
Snow Depth Not available.
6:37 AM 5:30 PM
Waning Crescent, 8% visible
METAR KSUE 232256Z AUTO 07006KT 10SM FEW100 02/M03 A2990 RMK AO2 PRESRR SLP150 T00221033 FZRANO

Get Your Daily Forecast Email!

Thanks for signing up!

Be on the lookout for a verification email in your inbox.

You'll start receiving the daily forecast at 8 AM.

×

10-Day Weather Forecast

Almanac

Astronomy

Feb. 23, 2017 Rise Set
Actual Time
Civil Twilight
Nautical Twilight
Astronomical Twilight
Moon
Length of Visible Light
Length of Day
Tomorrow will be .
, % of the Moon is Illuminated

Today's Extremes

State Highs State Lows

Community

WunderPhotos

Upload Photos

1,962,540 photos uploaded!

WunderBlog® & News

Nearby

Air Quality

  Air Quality AQ Index Pollutant
Not available.

Snow Depth

Station Depth Elevation

Earthquake Activity

City Distance Mag. Time & Date
Minimum magnitude displayed is 2.5.

Coastal Water Temperatures

Place Temperature

Stations

Nearby Weather Stations

Station Location Temp. Windchill Dew Point Humidity Wind Precip. Elev Updated Type
                   

Watches & Warnings

Winter Weather Advisory
Issued: 2:50 PM CST Feb. 23, 2017 – National Weather Service

... Winter Weather Advisory now in effect from 3 am Friday to 6 am
CST Saturday...

* timing... snow will develop between midnight and 300 am, and
continue through Friday night. The may be mixed with sleet and
freezing rain at times, especially Friday and early Friday
evening.

* Snow accumulations/precip type... a total snow accumulation of 4
to 7 inches is expected. Freezing drizzle could result in some
minor icing as well.

* Main impact... hazardous travel is expected, especially for the
morning commute on Friday.

Precautionary/preparedness actions...

Winter Weather Advisory means that periods of snow, sleet, or
freezing rain will cause travel difficulties. Be prepared for
slippery roads and limited visibilities, and use caution while
driving. The latest Wisconsin Road conditions can be obtained by
calling 511.



Kallas/skowronski